Owatonna, MN

5:41 PM CST on February 09, 2016 (GMT -0600)
Owatonna Degner Regional

Weather History for KOWA - March, 2013

Change the Weather History Date:

Tuesday, March 26, 2013

  Actual Average Record
Temperature  
Mean Temperature 31 °F -  
Max Temperature 39 °F 46 °F 75 °F (2007)
Min Temperature 23 °F 24 °F -6 °F (1965)
Degree Days  
Heating Degree Days 34    
Moisture  
Dew Point 20 °F    
Average Humidity 67    
Maximum Humidity 80    
Minimum Humidity 52    
Precipitation  
Precipitation 0.00 in - - ()
Sea Level Pressure  
Sea Level Pressure 30.26 in    
Wind  
Wind Speed 6 mph (WNW)    
Max Wind Speed 9 mph    
Max Gust Speed -    
Visibility 10 miles    
Events      
Averages and records for this station are not official NWS values.
T = Trace of Precipitation, MM = Missing Value Source: NWS Daily Summary

Daily Weather History Graph

Daily Weather History Graph

Search for Another Location

Airport or City:

Trip Planner

Search our weather history database for the weather conditions in past years. The results will help you decide how hot, cold, wet, or windy it might be!

Date:

Astronomy

Mar. 26, 2013 Rise Set
Actual Time 7:04 AM CDT 7:33 PM CDT
Civil Twilight 6:35 AM CDT 8:02 PM CDT
Nautical Twilight 6:01 AM CDT 8:36 PM CDT
Astronomical Twilight 5:26 AM CDT 9:11 PM CDT
Moon 7:11 PM CDT (3/26) 6:22 AM CDT (3/26)
Length of Visible Light 13h 26m
Length of Day
12h 28m
Waxing Gibbous, 99% of the Moon is Illuminated
Mar 26
Waxing Gibbous
Mar 27
Full
Apr 2
Last Quarter
Apr 10
New
Apr 18
First Quarter

Hourly Weather History & Observations

Time (CDT) Temp. Windchill Dew Point Humidity Pressure Visibility Wind Dir Wind Speed Gust Speed Precip Events Conditions
12:13 AM 28.4 °F 23.3 °F 19.4 °F 69% 30.22 in 10.0 mi NW 4.6 mph - N/A   Clear
12:33 AM 28.4 °F 22.2 °F 19.4 °F 69% 30.22 in 10.0 mi WNW 5.8 mph - N/A   Clear
12:53 AM 28.4 °F 22.2 °F 19.4 °F 69% 30.22 in 10.0 mi WNW 5.8 mph - N/A   Clear
1:13 AM 26.6 °F 18.2 °F 19.4 °F 74% 30.22 in 10.0 mi WNW 8.1 mph - N/A   Clear
1:34 AM 26.6 °F 17.5 °F 19.4 °F 74% 30.22 in 10.0 mi West 9.2 mph - N/A   Clear
1:53 AM 26.6 °F 19.1 °F 17.6 °F 69% 30.22 in 10.0 mi WNW 6.9 mph - N/A   Clear
2:13 AM 24.8 °F 17.9 °F 17.6 °F 74% 30.22 in 10.0 mi WNW 5.8 mph - N/A   Clear
2:33 AM 24.8 °F 16.9 °F 17.6 °F 74% 30.22 in 10.0 mi West 6.9 mph - N/A   Clear
2:53 AM 24.8 °F 17.9 °F 17.6 °F 74% 30.22 in 10.0 mi West 5.8 mph - N/A   Clear
3:13 AM 23.0 °F 17.0 °F 15.8 °F 74% 30.22 in 10.0 mi WSW 4.6 mph - N/A   Clear
3:33 AM 23.0 °F 18.4 °F 17.6 °F 80% 30.22 in 10.0 mi West 3.5 mph - N/A   Clear
3:53 AM 24.8 °F 16.1 °F 17.6 °F 74% 30.22 in 10.0 mi West 8.1 mph - N/A   Scattered Clouds
4:13 AM 24.8 °F 15.3 °F 17.6 °F 74% 30.22 in 10.0 mi West 9.2 mph - N/A   Mostly Cloudy
4:34 AM 24.8 °F 16.1 °F 17.6 °F 74% 30.22 in 10.0 mi West 8.1 mph - N/A   Overcast
4:54 AM 24.8 °F 16.9 °F 17.6 °F 74% 30.23 in 10.0 mi West 6.9 mph - N/A   Overcast
5:13 AM 24.8 °F 16.1 °F 17.6 °F 74% 30.23 in 10.0 mi West 8.1 mph - N/A   Overcast
5:34 AM 24.8 °F 15.3 °F 17.6 °F 74% 30.23 in 10.0 mi West 9.2 mph - N/A   Overcast
5:54 AM 24.8 °F 16.1 °F 17.6 °F 74% 30.23 in 10.0 mi West 8.1 mph - N/A   Overcast
6:13 AM 24.8 °F 16.1 °F 17.6 °F 74% 30.23 in 10.0 mi West 8.1 mph - N/A   Overcast
6:33 AM 24.8 °F 15.3 °F 17.6 °F 74% 30.24 in 10.0 mi West 9.2 mph - N/A   Overcast
6:53 AM 24.8 °F 16.9 °F 17.6 °F 74% 30.24 in 10.0 mi West 6.9 mph - N/A   Overcast
7:13 AM 24.8 °F 16.1 °F 17.6 °F 74% 30.25 in 10.0 mi West 8.1 mph - N/A   Overcast
7:34 AM 24.8 °F 16.9 °F 17.6 °F 74% 30.26 in 10.0 mi West 6.9 mph - N/A   Overcast
7:53 AM 24.8 °F 16.1 °F 17.6 °F 74% 30.26 in 10.0 mi West 8.1 mph - N/A   Overcast
8:13 AM 24.8 °F 16.9 °F 17.6 °F 74% 30.27 in 10.0 mi West 6.9 mph - N/A   Overcast
8:33 AM 24.8 °F 16.9 °F 17.6 °F 74% 30.27 in 10.0 mi WNW 6.9 mph - N/A   Overcast
8:53 AM 24.8 °F 16.9 °F 17.6 °F 74% 30.27 in 10.0 mi West 6.9 mph - N/A   Overcast
9:13 AM 24.8 °F 17.9 °F 17.6 °F 74% 30.28 in 10.0 mi West 5.8 mph - N/A   Overcast
9:34 AM 24.8 °F 16.9 °F 17.6 °F 74% 30.28 in 10.0 mi West 6.9 mph - N/A   Overcast
9:54 AM 26.6 °F 19.1 °F 17.6 °F 69% 30.28 in 10.0 mi West 6.9 mph - N/A   Overcast
10:13 AM 26.6 °F 18.2 °F 17.6 °F 69% 30.28 in 10.0 mi West 8.1 mph - N/A   Overcast
10:33 AM 26.6 °F 20.0 °F 17.6 °F 69% 30.29 in 10.0 mi West 5.8 mph - N/A   Overcast
10:53 AM 26.6 °F 19.1 °F 17.6 °F 69% 30.29 in 10.0 mi West 6.9 mph - N/A   Overcast
11:14 AM 26.6 °F 21.2 °F 17.6 °F 69% 30.29 in 10.0 mi West 4.6 mph - N/A   Overcast
11:33 AM 28.4 °F 22.2 °F 17.6 °F 64% 30.29 in 10.0 mi West 5.8 mph - N/A   Mostly Cloudy
11:53 AM 28.4 °F 21.2 °F 19.4 °F 69% 30.29 in 10.0 mi West 6.9 mph - N/A   Scattered Clouds
12:14 PM 30.2 °F 24.3 °F 19.4 °F 64% 30.29 in 10.0 mi West 5.8 mph - N/A   Clear
12:33 PM 30.2 °F 24.3 °F 19.4 °F 64% 30.29 in 10.0 mi West 5.8 mph - N/A   Clear
12:54 PM 32.0 °F 26.4 °F 19.4 °F 60% 30.29 in 10.0 mi WNW 5.8 mph - N/A   Clear
1:13 PM 33.8 °F 29.6 °F 21.2 °F 60% 30.28 in 10.0 mi West 4.6 mph - N/A   Clear
1:33 PM 33.8 °F 28.6 °F 21.2 °F 60% 30.28 in 10.0 mi WNW 5.8 mph - N/A   Clear
1:53 PM 35.6 °F 29.9 °F 21.2 °F 56% 30.28 in 10.0 mi WNW 6.9 mph - N/A   Clear
2:13 PM 35.6 °F 29.9 °F 21.2 °F 56% 30.27 in 10.0 mi West 6.9 mph - N/A   Clear
2:35 PM 35.6 °F 29.2 °F 21.2 °F 56% 30.27 in 10.0 mi West 8.1 mph - N/A   Clear
2:53 PM 37.4 °F 31.4 °F 23.0 °F 56% 30.27 in 10.0 mi West 8.1 mph - N/A   Clear
3:14 PM 37.4 °F 32.1 °F 23.0 °F 56% 30.27 in 10.0 mi West 6.9 mph - N/A   Clear
3:33 PM 37.4 °F 32.8 °F 21.2 °F 52% 30.27 in 10.0 mi West 5.8 mph - N/A   Clear
3:53 PM 37.4 °F 32.1 °F 23.0 °F 56% 30.27 in 10.0 mi West 6.9 mph - N/A   Clear
4:14 PM 37.4 °F 34.9 °F 23.0 °F 56% 30.26 in 10.0 mi West 3.5 mph - N/A   Clear
4:34 PM 39.2 °F 35.9 °F 23.0 °F 52% 30.26 in 10.0 mi WNW 4.6 mph - N/A   Clear
4:54 PM 37.4 °F 32.8 °F 23.0 °F 56% 30.26 in 10.0 mi NW 5.8 mph - N/A   Clear
5:13 PM 37.4 °F 32.1 °F 21.2 °F 52% 30.26 in 10.0 mi WNW 6.9 mph - N/A   Clear
5:33 PM 37.4 °F 32.8 °F 23.0 °F 56% 30.26 in 10.0 mi WNW 5.8 mph - N/A   Clear
5:54 PM 37.4 °F 33.8 °F 23.0 °F 56% 30.26 in 10.0 mi WNW 4.6 mph - N/A   Clear
6:13 PM 37.4 °F 34.9 °F 23.0 °F 56% 30.26 in 10.0 mi WNW 3.5 mph - N/A   Clear
6:34 PM 37.4 °F 34.9 °F 24.8 °F 60% 30.26 in 10.0 mi North 3.5 mph - N/A   Clear
6:53 PM 37.4 °F 34.9 °F 21.2 °F 52% 30.26 in 10.0 mi NE 3.5 mph - N/A   Clear
7:14 PM 35.6 °F - 21.2 °F 56% 30.26 in 10.0 mi Calm Calm - N/A   Clear
7:34 PM 35.6 °F - 21.2 °F 56% 30.26 in 10.0 mi Calm Calm - N/A   Clear
7:54 PM 33.8 °F - 21.2 °F 60% 30.27 in 10.0 mi Calm Calm - N/A   Clear
8:13 PM 33.8 °F - 21.2 °F 60% 30.27 in 10.0 mi Calm Calm - N/A   Clear
8:33 PM 30.2 °F - 21.2 °F 69% 30.27 in 10.0 mi Calm Calm - N/A   Clear
8:53 PM 30.2 °F - 21.2 °F 69% 30.28 in 10.0 mi Calm Calm - N/A   Clear
9:13 PM 30.2 °F - 21.2 °F 69% 30.28 in 10.0 mi Calm Calm - N/A   Clear
9:34 PM 30.2 °F - 21.2 °F 69% 30.28 in 10.0 mi Calm Calm - N/A   Clear
9:53 PM 28.4 °F - 19.4 °F 69% 30.28 in 10.0 mi Calm Calm - N/A   Clear
10:14 PM 26.6 °F - 19.4 °F 74% 30.27 in 10.0 mi Calm Calm - N/A   Clear
10:34 PM 28.4 °F - 19.4 °F 69% 30.28 in 10.0 mi Calm Calm - N/A   Clear
10:53 PM 28.4 °F - 19.4 °F 69% 30.28 in 10.0 mi Calm Calm - N/A   Clear
11:13 PM 30.2 °F - 21.2 °F 69% 30.29 in 10.0 mi Calm Calm - N/A   Clear
11:34 PM 24.8 °F - 19.4 °F 80% 30.28 in 10.0 mi Calm Calm - N/A   Clear
11:53 PM 24.8 °F - 17.6 °F 74% 30.29 in 10.0 mi Calm Calm - N/A   Clear